createdAt,value
2018-04-27T00:00:12.003Z,9.07
2018-04-27T00:02:39.575Z,7.93
2018-04-27T00:05:07.201Z,10.70
2018-04-27T00:07:34.707Z,4.50
2018-04-27T00:10:02.260Z,8.57
2018-04-27T00:12:29.827Z,6.00
2018-04-27T00:14:57.472Z,6.10
2018-04-27T00:17:25.068Z,9.37
2018-04-27T00:19:52.658Z,8.37
2018-04-27T00:22:20.414Z,16.07
2018-04-27T00:24:48.012Z,36.90
2018-04-27T00:27:15.567Z,16.30
2018-04-27T00:29:43.137Z,13.83
2018-04-27T00:32:10.737Z,7.30
2018-04-27T00:34:38.303Z,7.77
2018-04-27T00:37:05.875Z,10.23
2018-04-27T00:39:33.494Z,9.93
2018-04-27T00:42:01.060Z,3.90
2018-04-27T00:44:28.677Z,19.37
2018-04-27T00:46:56.273Z,16.40
2018-04-27T00:49:24.675Z,12.57
2018-04-27T00:51:52.204Z,15.37
2018-04-27T00:54:19.916Z,17.97
2018-04-27T00:56:47.513Z,18.67
2018-04-27T00:59:15.070Z,10.33
2018-04-27T01:01:42.670Z,8.20
2018-04-27T01:04:10.267Z,7.70
2018-04-27T01:06:37.932Z,11.27
2018-04-27T01:09:05.524Z,7.20
2018-04-27T01:11:33.145Z,13.33
2018-04-27T01:14:00.722Z,8.10
2018-04-27T01:16:28.292Z,12.10
2018-04-27T01:18:55.844Z,6.37
2018-04-27T01:21:23.818Z,7.03
2018-04-27T01:23:51.397Z,5.80
2018-04-27T01:26:18.967Z,13.57
2018-04-27T01:28:46.563Z,39.53
2018-04-27T01:31:14.866Z,31.63
2018-04-27T01:33:42.437Z,16.90
2018-04-27T01:36:10.039Z,19.57
2018-04-27T01:38:37.615Z,22.67
2018-04-27T01:41:05.279Z,17.93
2018-04-27T01:43:33.207Z,13.70
2018-04-27T01:46:00.794Z,17.87
2018-04-27T01:48:28.437Z,14.67
2018-04-27T01:50:55.993Z,11.93
2018-04-27T01:53:23.592Z,14.70
2018-04-27T01:55:51.118Z,7.77
2018-04-27T01:58:18.651Z,12.57
2018-04-27T02:00:46.165Z,9.43
2018-04-27T02:03:13.899Z,7.40
2018-04-27T02:05:41.842Z,10.60
2018-04-27T02:08:09.558Z,12.63
2018-04-27T02:10:37.173Z,8.87
2018-04-27T02:13:04.789Z,14.10
2018-04-27T02:15:33.846Z,11.20
2018-04-27T02:18:01.409Z,11.83
2018-04-27T02:20:28.984Z,6.20
2018-04-27T02:22:56.586Z,5.53
2018-04-27T02:25:24.167Z,5.10
2018-04-27T02:27:51.724Z,5.73
2018-04-27T02:30:19.315Z,6.40
2018-04-27T02:32:46.903Z,6.97
2018-04-27T02:35:14.684Z,7.90
2018-04-27T02:37:42.233Z,3.90
2018-04-27T02:40:09.821Z,6.20
2018-04-27T02:42:37.372Z,7.63
2018-04-27T02:45:04.974Z,5.07
2018-04-27T02:47:32.706Z,10.63
2018-04-27T02:50:00.283Z,9.23
2018-04-27T02:52:27.816Z,4.57
2018-04-27T02:54:55.403Z,4.90
2018-04-27T02:57:22.954Z,5.13
2018-04-27T02:59:50.482Z,5.97
2018-04-27T03:02:18.069Z,10.17
2018-04-27T03:04:45.603Z,5.53
2018-04-27T03:07:13.134Z,6.67
2018-04-27T03:09:40.722Z,7.90
2018-04-27T03:12:08.262Z,5.67
2018-04-27T03:14:35.843Z,11.57
2018-04-27T03:17:03.398Z,13.73
2018-04-27T03:19:30.940Z,8.60
2018-04-27T03:21:58.516Z,8.53
2018-04-27T03:24:26.064Z,7.07
2018-04-27T03:26:53.633Z,4.90
2018-04-27T03:29:21.215Z,6.40
2018-04-27T03:31:48.776Z,10.00
2018-04-27T03:34:16.326Z,4.30
2018-04-27T03:36:43.894Z,5.03
2018-04-27T03:39:11.613Z,6.70
2018-04-27T03:41:39.216Z,5.97
2018-04-27T03:44:06.810Z,7.43
2018-04-27T03:46:34.396Z,5.53
2018-04-27T03:49:01.969Z,6.03
2018-04-27T03:51:29.559Z,5.37
2018-04-27T03:53:57.176Z,5.20
2018-04-27T03:56:24.782Z,6.47
2018-04-27T03:58:52.368Z,3.33
2018-04-27T04:01:32.061Z,7.00
2018-04-27T04:04:11.574Z,6.40
2018-04-27T04:06:39.137Z,6.70
2018-04-27T04:09:06.645Z,5.47
2018-04-27T04:11:34.193Z,6.03
2018-04-27T04:14:01.802Z,4.93
2018-04-27T04:16:29.352Z,5.73
2018-04-27T04:18:56.933Z,3.33
2018-04-27T04:21:24.822Z,3.47
2018-04-27T04:23:52.573Z,5.20
2018-04-27T04:26:20.175Z,5.90
2018-04-27T04:28:47.732Z,3.80
2018-04-27T04:31:15.324Z,6.00
2018-04-27T04:33:42.939Z,5.37
2018-04-27T04:36:10.528Z,5.57
2018-04-27T04:38:38.123Z,5.83
2018-04-27T04:41:05.687Z,9.60
2018-04-27T04:43:33.357Z,6.63
2018-04-27T04:46:00.940Z,8.70
2018-04-27T04:48:28.580Z,15.40
2018-04-27T04:50:56.193Z,6.60
2018-04-27T04:53:23.694Z,12.83
2018-04-27T04:55:51.209Z,6.83
2018-04-27T04:58:18.851Z,8.37
2018-04-27T05:00:46.476Z,11.30
2018-04-27T05:03:14.300Z,6.40
2018-04-27T05:05:42.073Z,10.13
2018-04-27T05:08:09.728Z,7.60
2018-04-27T05:10:37.261Z,10.43
2018-04-27T05:13:05.017Z,9.10
2018-04-27T05:15:32.588Z,8.90
2018-04-27T05:18:11.005Z,15.83
2018-04-27T05:20:38.640Z,8.13
2018-04-27T05:23:06.375Z,17.93
2018-04-27T05:25:34.061Z,39.20
2018-04-27T05:28:01.705Z,48.53
2018-04-27T05:30:29.305Z,19.90
2018-04-27T05:33:04.733Z,9.63
2018-04-27T05:35:32.336Z,10.37
2018-04-27T05:37:59.939Z,14.00
2018-04-27T05:40:27.545Z,12.03
2018-04-27T05:42:55.167Z,9.40
2018-04-27T05:45:23.600Z,12.43
2018-04-27T05:47:51.221Z,9.37
2018-04-27T05:50:18.829Z,8.40
2018-04-27T05:52:46.484Z,13.63
2018-04-27T05:55:14.124Z,6.00
2018-04-27T05:57:41.796Z,5.13
2018-04-27T06:00:09.309Z,6.20
2018-04-27T06:02:36.829Z,5.30
2018-04-27T06:05:04.348Z,8.87
2018-04-27T06:07:31.944Z,12.83
2018-04-27T06:09:59.611Z,13.10
2018-04-27T06:12:27.220Z,11.90
2018-04-27T06:14:55.180Z,11.27
2018-04-27T06:17:22.799Z,20.83
2018-04-27T06:19:50.434Z,43.10
2018-04-27T06:22:17.993Z,25.90
2018-04-27T06:24:45.745Z,14.40
2018-04-27T06:27:13.316Z,14.57
2018-04-27T06:29:40.976Z,14.43
2018-04-27T06:32:08.560Z,14.47
2018-04-27T06:34:36.070Z,12.73
2018-04-27T06:37:03.605Z,11.40
2018-04-27T06:39:31.660Z,12.53
2018-04-27T06:41:59.294Z,10.90
2018-04-27T06:44:26.932Z,8.90
2018-04-27T06:46:54.442Z,15.00
2018-04-27T06:49:21.999Z,4.40
2018-04-27T06:51:49.509Z,4.80
2018-04-27T06:54:17.042Z,11.30
2018-04-27T06:56:44.569Z,14.30
2018-04-27T06:59:12.121Z,12.13
2018-04-27T07:01:39.614Z,6.60
2018-04-27T07:04:07.134Z,6.33
2018-04-27T07:06:34.645Z,4.33
2018-04-27T07:09:02.201Z,9.23
2018-04-27T07:11:30.105Z,8.60
2018-04-27T07:13:57.680Z,6.70
2018-04-27T07:16:25.283Z,6.97
2018-04-27T07:18:52.935Z,7.20
2018-04-27T07:21:21.735Z,6.53
2018-04-27T07:23:49.354Z,7.60
2018-04-27T07:26:17.016Z,5.40
2018-04-27T07:28:45.437Z,4.23
2018-04-27T07:31:12.940Z,7.13
2018-04-27T07:33:40.543Z,4.90
2018-04-27T07:36:08.157Z,5.80
2018-04-27T07:38:35.733Z,5.30
2018-04-27T07:41:03.326Z,7.27
2018-04-27T07:43:30.924Z,7.37
2018-04-27T07:45:58.525Z,6.97
2018-04-27T07:48:26.178Z,5.60
2018-04-27T07:50:53.709Z,10.10
2018-04-27T07:53:21.577Z,6.40
2018-04-27T07:55:49.103Z,6.23
2018-04-27T07:58:16.637Z,8.43
2018-04-27T08:00:44.293Z,6.10
2018-04-27T08:03:12.597Z,6.90
2018-04-27T08:05:40.224Z,13.83
2018-04-27T08:08:07.799Z,8.90
2018-04-27T08:10:35.541Z,9.27
2018-04-27T08:13:03.068Z,4.53
2018-04-27T08:15:30.736Z,8.00
2018-04-27T08:17:58.368Z,4.40
2018-04-27T08:20:28.912Z,8.90
2018-04-27T08:22:57.452Z,7.83
2018-04-27T08:25:30.413Z,5.20
2018-04-27T08:27:58.057Z,4.50
2018-04-27T08:30:25.717Z,4.80
2018-04-27T08:32:53.363Z,4.97
2018-04-27T08:35:21.900Z,4.73
2018-04-27T08:37:49.457Z,11.33
2018-04-27T08:40:17.172Z,4.23
2018-04-27T08:42:44.701Z,6.97
2018-04-27T08:45:12.678Z,5.30
2018-04-27T08:47:40.308Z,7.50
2018-04-27T08:50:07.922Z,5.23
2018-04-27T08:52:35.747Z,3.93
2018-04-27T08:55:07.787Z,5.97
2018-04-27T08:57:35.395Z,8.17
2018-04-27T09:00:03.002Z,4.20
2018-04-27T09:02:31.160Z,4.93
2018-04-27T09:04:58.746Z,3.10
2018-04-27T09:07:26.806Z,4.30
2018-04-27T09:09:55.065Z,3.73
2018-04-27T09:12:22.663Z,7.60
2018-04-27T09:14:50.329Z,5.10
2018-04-27T09:17:18.100Z,3.30
2018-04-27T09:19:45.921Z,5.23
2018-04-27T09:22:13.549Z,2.77
2018-04-27T09:24:41.116Z,3.67
2018-04-27T09:27:08.713Z,7.70
2018-04-27T09:29:36.344Z,5.03
2018-04-27T09:32:03.950Z,5.27
2018-04-27T09:34:31.644Z,3.90
2018-04-27T09:36:59.211Z,2.90
2018-04-27T09:39:26.768Z,4.93
2018-04-27T09:41:55.117Z,7.47
2018-04-27T09:44:22.707Z,6.57
2018-04-27T09:46:50.289Z,11.77
2018-04-27T09:49:17.902Z,6.13
2018-04-27T09:51:45.480Z,2.50
2018-04-27T09:54:13.059Z,4.90
2018-04-27T09:59:14.465Z,4.03
2018-04-27T10:01:42.083Z,5.83
2018-04-27T10:04:09.724Z,5.50
2018-04-27T10:09:27.884Z,3.00
2018-04-27T10:11:55.456Z,3.93
2018-04-27T10:14:23.002Z,8.17
2018-04-27T10:16:50.548Z,4.97
2018-04-27T10:19:18.305Z,9.80
2018-04-27T10:21:45.934Z,4.87
2018-04-27T10:24:13.520Z,5.33
2018-04-27T10:26:41.104Z,5.00
2018-04-27T10:29:08.770Z,4.00
2018-04-27T10:31:37.579Z,5.40
2018-04-27T10:34:05.293Z,4.97
2018-04-27T10:36:32.949Z,3.93
2018-04-27T10:39:00.546Z,12.00
2018-04-27T10:41:28.175Z,4.53
2018-04-27T10:43:55.857Z,3.90
2018-04-27T10:46:23.516Z,5.27
2018-04-27T10:48:51.139Z,7.77
2018-04-27T10:51:19.009Z,8.70
2018-04-27T10:53:46.648Z,8.20
2018-04-27T10:56:14.245Z,6.10
2018-04-27T10:58:41.830Z,6.83
2018-04-27T11:01:09.446Z,8.07
2018-04-27T11:03:37.487Z,6.73
2018-04-27T11:06:05.410Z,5.97
2018-04-27T11:08:33.038Z,5.57
2018-04-27T11:11:00.708Z,4.93
2018-04-27T11:13:28.375Z,8.30
2018-04-27T11:15:56.291Z,8.60
2018-04-27T11:18:23.879Z,7.80
2018-04-27T11:20:51.521Z,3.97
2018-04-27T11:23:19.062Z,3.77
2018-04-27T11:25:46.718Z,5.40
2018-04-27T11:28:14.296Z,4.43
2018-04-27T11:30:41.869Z,3.97
2018-04-27T11:33:09.717Z,4.37
2018-04-27T11:35:37.327Z,3.97
2018-04-27T11:38:04.978Z,2.30
2018-04-27T11:40:32.570Z,5.87
2018-04-27T11:43:00.076Z,14.40
2018-04-27T11:45:28.056Z,7.93
2018-04-27T11:47:55.964Z,2.80
2018-04-27T11:50:23.477Z,2.53
2018-04-27T11:52:51.030Z,3.67
2018-04-27T11:55:18.903Z,4.63
2018-04-27T12:00:22.174Z,4.13
2018-04-27T12:02:49.701Z,10.17
2018-04-27T12:05:17.347Z,6.13
2018-04-27T12:07:44.953Z,5.33
2018-04-27T12:10:12.522Z,3.77
2018-04-27T12:12:40.095Z,3.83
2018-04-27T12:15:07.721Z,4.70
2018-04-27T12:17:35.416Z,5.07
2018-04-27T12:20:02.856Z,5.70
2018-04-27T12:22:30.580Z,5.43
2018-04-27T12:24:58.122Z,3.33
2018-04-27T12:27:25.721Z,2.47
2018-04-27T12:29:53.281Z,4.00
2018-04-27T12:32:20.819Z,2.70
2018-04-27T12:34:48.354Z,3.10
2018-04-27T12:37:15.992Z,4.70
2018-04-27T12:39:43.626Z,7.57
2018-04-27T12:42:11.313Z,4.97
2018-04-27T12:44:41.830Z,3.33
2018-04-27T12:47:09.447Z,3.80
2018-04-27T12:49:37.032Z,3.40
2018-04-27T12:52:04.723Z,4.83
2018-04-27T12:54:32.445Z,3.93
2018-04-27T12:57:00.119Z,4.67
2018-04-27T12:59:27.722Z,4.00
2018-04-27T13:01:55.299Z,8.67
2018-04-27T13:04:22.887Z,3.33
2018-04-27T13:06:50.463Z,4.57
2018-04-27T13:09:18.014Z,3.80
2018-04-27T13:11:45.523Z,6.10
2018-04-27T13:14:13.116Z,3.70
2018-04-27T13:16:40.714Z,5.13
2018-04-27T13:19:08.331Z,3.10
2018-04-27T13:21:35.928Z,3.13
2018-04-27T13:24:03.547Z,3.43
2018-04-27T13:26:31.132Z,4.93
2018-04-27T13:28:58.698Z,3.10
2018-04-27T13:31:26.279Z,7.03
2018-04-27T13:33:53.852Z,3.67
2018-04-27T13:36:21.433Z,5.13
2018-04-27T13:38:49.048Z,5.23
2018-04-27T13:41:16.682Z,2.43
2018-04-27T13:43:44.259Z,2.93
2018-04-27T13:46:11.855Z,11.80
2018-04-27T13:48:39.449Z,3.40
2018-04-27T13:51:07.047Z,4.13
2018-04-27T13:53:34.855Z,4.10
2018-04-27T13:56:02.464Z,5.73
2018-04-27T13:58:30.177Z,1.73
2018-04-27T14:00:57.808Z,4.60
2018-04-27T14:03:25.577Z,1.77
2018-04-27T14:05:53.196Z,7.40
2018-04-27T14:08:20.859Z,3.43
2018-04-27T14:10:48.479Z,6.67
2018-04-27T14:13:16.097Z,2.50
2018-04-27T14:15:43.607Z,3.60
2018-04-27T14:18:11.280Z,3.87
2018-04-27T14:20:38.865Z,2.13
2018-04-27T14:23:12.271Z,2.30
2018-04-27T14:25:42.258Z,5.93
2018-04-27T14:28:10.521Z,5.80
2018-04-27T14:30:38.569Z,1.93
2018-04-27T14:33:06.324Z,5.80
2018-04-27T14:35:33.897Z,2.47
2018-04-27T14:38:01.462Z,14.83
2018-04-27T14:40:29.067Z,6.73
2018-04-27T14:42:56.655Z,2.47
2018-04-27T14:45:24.300Z,3.27
2018-04-27T14:47:51.943Z,2.83
2018-04-27T14:50:19.543Z,1.97
2018-04-27T14:52:47.207Z,6.33
2018-04-27T14:55:14.813Z,6.63
2018-04-27T14:57:42.440Z,5.40
2018-04-27T15:00:10.126Z,2.30
2018-04-27T15:02:37.802Z,4.57
2018-04-27T15:05:05.409Z,2.57
2018-04-27T15:07:34.573Z,2.90
2018-04-27T15:10:02.202Z,3.40
2018-04-27T15:12:29.883Z,4.50
2018-04-27T15:14:57.524Z,2.23
2018-04-27T15:17:25.189Z,3.30
2018-04-27T15:19:52.917Z,3.67
2018-04-27T15:22:20.704Z,5.17
2018-04-27T15:24:48.298Z,4.20
2018-04-27T15:27:15.877Z,5.67
2018-04-27T15:29:43.521Z,3.50
2018-04-27T15:32:11.264Z,4.57
2018-04-27T15:34:38.898Z,3.23
2018-04-27T15:37:06.713Z,6.13
2018-04-27T15:39:34.335Z,4.23
2018-04-27T15:42:01.980Z,8.03
2018-04-27T15:44:29.640Z,7.53
2018-04-27T15:46:57.254Z,4.80
2018-04-27T15:49:24.958Z,6.13
2018-04-27T15:51:52.551Z,5.80
2018-04-27T15:54:20.127Z,3.67
2018-04-27T15:56:47.704Z,5.40
2018-04-27T15:59:15.399Z,3.30
2018-04-27T16:01:43.008Z,5.70
2018-04-27T16:04:10.581Z,8.73
2018-04-27T16:06:38.219Z,5.43
2018-04-27T16:09:05.803Z,4.47
2018-04-27T16:11:33.823Z,3.43
2018-04-27T16:14:01.589Z,2.53
2018-04-27T16:16:31.017Z,2.70
2018-04-27T16:19:07.621Z,8.43
2018-04-27T16:21:35.172Z,5.83
2018-04-27T16:24:02.715Z,6.67
2018-04-27T16:26:31.045Z,3.27
2018-04-27T16:28:59.409Z,6.50
2018-04-27T16:31:27.738Z,5.53
2018-04-27T16:33:55.327Z,9.03
2018-04-27T16:36:22.835Z,6.10
2018-04-27T16:38:50.401Z,5.93
2018-04-27T16:41:18.188Z,5.53
2018-04-27T16:43:45.749Z,14.43
2018-04-27T16:46:13.253Z,4.83
2018-04-27T16:48:40.745Z,5.60
2018-04-27T16:51:08.278Z,3.33
2018-04-27T16:53:36.001Z,2.60
2018-04-27T16:56:03.540Z,6.53
2018-04-27T16:58:31.179Z,2.00
2018-04-27T17:00:58.732Z,3.30
2018-04-27T17:03:26.296Z,2.70
2018-04-27T17:05:53.818Z,3.73
2018-04-27T17:08:21.364Z,5.07
2018-04-27T17:10:48.886Z,5.93
2018-04-27T17:15:50.135Z,7.10
2018-04-27T17:18:17.648Z,4.00
2018-04-27T17:20:45.184Z,7.83
2018-04-27T17:23:13.017Z,6.50
2018-04-27T17:25:40.550Z,5.30
2018-04-27T17:28:08.117Z,4.50
2018-04-27T17:30:35.621Z,6.90
2018-04-27T17:33:03.167Z,8.33
2018-04-27T17:35:30.918Z,9.43
2018-04-27T17:37:58.430Z,5.70
2018-04-27T17:40:26.009Z,3.40
2018-04-27T17:42:53.485Z,6.30
2018-04-27T17:45:21.539Z,4.40
2018-04-27T17:47:49.341Z,8.83
2018-04-27T17:50:16.903Z,4.73
2018-04-27T17:52:44.468Z,2.60
2018-04-27T17:55:12.112Z,6.20
2018-04-27T17:57:39.617Z,8.70
2018-04-27T18:00:07.151Z,4.97
2018-04-27T18:02:34.825Z,3.40
2018-04-27T18:05:02.398Z,3.63
2018-04-27T18:07:29.976Z,3.20
2018-04-27T18:09:57.488Z,2.70
2018-04-27T18:12:25.053Z,2.10
2018-04-27T18:14:52.586Z,6.47
2018-04-27T18:17:20.434Z,6.23
2018-04-27T18:19:48.053Z,10.13
2018-04-27T18:22:15.650Z,4.80
2018-04-27T18:24:43.282Z,5.53
2018-04-27T18:27:10.840Z,5.53
2018-04-27T18:29:38.404Z,2.43
2018-04-27T18:32:06.019Z,6.37
2018-04-27T18:34:33.587Z,4.53
2018-04-27T18:37:09.962Z,6.10
2018-04-27T18:39:37.569Z,7.13
2018-04-27T18:42:05.106Z,4.10
2018-04-27T18:44:32.678Z,4.87
2018-04-27T18:47:00.134Z,5.60
2018-04-27T18:49:27.672Z,5.23
2018-04-27T18:51:55.214Z,4.30
2018-04-27T18:54:22.776Z,4.73
2018-04-27T18:56:50.635Z,3.90
2018-04-27T18:59:18.203Z,5.90
2018-04-27T19:01:45.744Z,2.53
2018-04-27T19:04:16.113Z,2.60
2018-04-27T19:06:43.649Z,4.27
2018-04-27T19:09:11.651Z,8.13
2018-04-27T19:11:40.251Z,5.00
2018-04-27T19:14:07.830Z,6.30
2018-04-27T19:16:35.465Z,6.97
2018-04-27T19:19:16.748Z,11.63
2018-04-27T19:21:44.919Z,10.33
2018-04-27T19:24:12.502Z,6.20
2018-04-27T19:26:40.052Z,5.57
2018-04-27T19:29:09.593Z,2.93
2018-04-27T19:34:16.171Z,4.07
2018-04-27T19:36:43.717Z,10.70
2018-04-27T19:39:11.373Z,8.47
2018-04-27T19:41:38.942Z,8.40
2018-04-27T19:44:06.526Z,8.27
2018-04-27T19:46:34.097Z,4.13
2018-04-27T19:49:01.701Z,13.10
2018-04-27T19:51:29.216Z,5.50
2018-04-27T19:53:56.726Z,5.40
2018-04-27T19:56:24.231Z,3.80
2018-04-27T19:58:51.742Z,3.23
2018-04-27T20:01:19.264Z,2.87
2018-04-27T20:03:48.192Z,3.57
2018-04-27T20:06:15.846Z,6.03
2018-04-27T20:08:43.501Z,3.40
2018-04-27T20:11:13.007Z,4.60
2018-04-27T20:13:40.607Z,4.60
2018-04-27T20:16:08.236Z,2.37
2018-04-27T20:18:35.874Z,3.10
2018-04-27T20:21:04.208Z,4.37
2018-04-27T20:23:38.578Z,4.07
2018-04-27T20:26:06.107Z,6.67
2018-04-27T20:28:35.276Z,5.40
2018-04-27T20:31:02.830Z,4.80
2018-04-27T20:33:30.490Z,4.20
2018-04-27T20:35:58.942Z,4.83
2018-04-27T20:38:27.296Z,7.90
2018-04-27T20:40:54.857Z,4.40
2018-04-27T20:43:22.443Z,13.87
2018-04-27T20:45:50.104Z,18.30
2018-04-27T20:48:20.448Z,22.37
2018-04-27T20:50:57.967Z,18.93
2018-04-27T20:53:26.101Z,12.90
2018-04-27T20:56:02.648Z,6.50
2018-04-27T20:58:30.252Z,6.00
2018-04-27T21:00:58.679Z,6.10
2018-04-27T21:03:26.243Z,6.30
2018-04-27T21:05:53.841Z,5.13
2018-04-27T21:08:21.406Z,4.50
2018-04-27T21:10:48.942Z,4.70
2018-04-27T21:13:16.541Z,11.63
2018-04-27T21:15:44.212Z,4.77
2018-04-27T21:18:15.473Z,4.60
2018-04-27T21:20:42.973Z,5.00
2018-04-27T21:23:10.501Z,6.23
2018-04-27T21:25:38.016Z,6.93
2018-04-27T21:31:01.399Z,7.30
2018-04-27T21:33:30.673Z,8.80
2018-04-27T21:36:00.998Z,17.13
2018-04-27T21:41:28.205Z,6.77
2018-04-27T21:46:54.582Z,4.20
2018-04-27T21:49:24.981Z,6.83
2018-04-27T21:51:54.789Z,3.97
2018-04-27T21:54:23.211Z,8.07
2018-04-27T21:57:00.490Z,6.37
2018-04-27T21:59:34.568Z,4.17
2018-04-27T22:02:02.062Z,4.97
2018-04-27T22:04:29.554Z,6.90
2018-04-27T22:06:57.061Z,5.27
2018-04-27T22:09:28.362Z,6.90
2018-04-27T22:11:55.909Z,8.90
2018-04-27T22:14:29.357Z,5.53
2018-04-27T22:16:58.789Z,6.90
2018-04-27T22:19:27.425Z,4.53
2018-04-27T22:21:55.085Z,6.10
2018-04-27T22:24:23.431Z,4.43
2018-04-27T22:27:09.592Z,6.60
2018-04-27T22:29:41.651Z,9.57
2018-04-27T22:32:11.964Z,11.17
2018-04-27T22:34:47.386Z,6.77
2018-04-27T22:37:14.907Z,3.93
2018-04-27T22:39:46.103Z,7.07
2018-04-27T22:42:22.247Z,11.47
2018-04-27T22:44:49.744Z,15.53
2018-04-27T22:47:21.002Z,44.70
2018-04-27T22:49:48.571Z,34.50
2018-04-27T22:52:16.130Z,19.97
2018-04-27T22:54:49.302Z,5.77
2018-04-27T22:57:23.437Z,6.37
2018-04-27T22:59:57.419Z,11.10
2018-04-27T23:02:24.954Z,4.10
2018-04-27T23:04:59.820Z,6.10
2018-04-27T23:07:38.006Z,11.00
2018-04-27T23:10:05.590Z,12.57
2018-04-27T23:12:39.728Z,11.50
2018-04-27T23:15:07.248Z,4.63
2018-04-27T23:17:34.739Z,3.90
2018-04-27T23:20:03.718Z,4.87
2018-04-27T23:22:44.432Z,4.20
2018-04-27T23:25:14.900Z,4.10
2018-04-27T23:27:42.369Z,8.00
2018-04-27T23:30:09.901Z,5.20
2018-04-27T23:32:37.385Z,4.40
2018-04-27T23:35:04.872Z,7.10
2018-04-27T23:37:32.413Z,8.33
2018-04-27T23:39:59.912Z,20.67
2018-04-27T23:42:28.344Z,21.00
2018-04-27T23:44:55.889Z,11.07
2018-04-27T23:47:23.358Z,10.70
2018-04-27T23:49:50.894Z,4.83
2018-04-27T23:52:18.379Z,4.30
2018-04-27T23:54:45.883Z,11.37
2018-04-27T23:57:14.202Z,4.00
2018-04-27T23:59:56.560Z,4.33
